Time;durP1;ratioP1;P1;durP2;ratioP2;P2;SDS_P1;SDS_P2;PMS_P1;PMS_P2;Temp;Humidity;BMP_temperature;BMP_pressure;BME280_temperature;BME280_humidity;BME280_pressure;Samples;Min_cycle;Max_cycle;Signal;HPM_P1;HPM_P2
2021/09/27 00:01:28;;;;;;;18.63;11.38;;;;;;;15.68;93.30;96535.59;5106817;28;20039;-79
2021/09/27 00:03:56;;;;;;;23.13;12.43;;;;;;;15.63;93.49;96533.91;5106723;28;20135;-79
2021/09/27 00:06:22;;;;;;;21.27;12.00;;;;;;;15.65;93.37;96533.53;5106580;28;20766;-78
2021/09/27 00:08:49;;;;;;;19.27;12.05;;;;;;;15.72;93.40;96535.72;5106613;28;20047;-78
2021/09/27 00:11:20;;;;;;;21.02;11.68;;;;;;;15.70;93.01;96533.31;5106058;28;20047;-79
2021/09/27 00:13:49;;;;;;;16.52;10.73;;;;;;;15.69;92.78;96534.47;5107167;28;20134;-78
2021/09/27 00:16:16;;;;;;;18.25;10.77;;;;;;;15.67;92.96;96533.22;5105510;28;20051;-78
2021/09/27 00:18:42;;;;;;;16.98;10.25;;;;;;;15.62;92.87;96535.03;5107580;28;20138;-79
2021/09/27 00:21:15;;;;;;;16.10;10.13;;;;;;;15.55;92.64;96528.50;5105745;28;20052;-78
2021/09/27 00:23:42;;;;;;;15.10;10.25;;;;;;;15.45;92.88;96535.25;5107039;28;20051;-78
2021/09/27 00:26:09;;;;;;;17.25;9.68;;;;;;;15.38;93.12;96538.59;5105760;28;20502;-79
2021/09/27 00:28:36;;;;;;;17.70;9.77;;;;;;;15.41;93.64;96531.63;5106817;28;20043;-78
2021/09/27 00:31:04;;;;;;;17.60;10.93;;;;;;;15.43;93.57;96531.28;5107297;28;20057;-78
2021/09/27 00:33:31;;;;;;;16.48;10.32;;;;;;;15.38;93.15;96526.81;5110111;28;20051;-79
2021/09/27 00:35:58;;;;;;;16.33;9.68;;;;;;;15.34;93.36;96532.19;5110316;28;20070;-78
2021/09/27 00:38:27;;;;;;;16.92;9.95;;;;;;;15.28;93.33;96530.81;5109825;28;20055;-79
2021/09/27 00:40:57;;;;;;;15.40;10.20;;;;;;;15.23;93.39;96531.03;5110666;28;20537;-77
2021/09/27 00:43:24;;;;;;;17.58;10.48;;;;;;;15.27;93.40;96529.22;5108850;28;20052;-77
2021/09/27 00:45:54;;;;;;;13.60;8.95;;;;;;;15.27;93.35;96529.22;5110839;28;20044;-79
2021/09/27 00:48:21;;;;;;;14.25;9.77;;;;;;;15.28;93.18;96536.31;5109226;28;20054;-79
2021/09/27 00:50:55;;;;;;;14.95;9.45;;;;;;;15.24;92.87;96540.88;5110064;28;20047;-80
2021/09/27 00:53:27;;;;;;;15.15;9.20;;;;;;;15.24;93.16;96529.09;5109416;28;20058;-77
2021/09/27 00:55:56;;;;;;;17.70;9.98;;;;;;;15.27;93.17;96533.91;5109749;28;20055;-79
2021/09/27 00:58:24;;;;;;;15.43;9.43;;;;;;;15.20;92.26;96534.50;5109900;28;20048;-78
2021/09/27 01:00:51;;;;;;;13.68;8.93;;;;;;;15.11;92.09;96540.09;5109588;28;20078;-78
2021/09/27 01:03:18;;;;;;;15.40;9.32;;;;;;;15.01;92.03;96532.31;5109715;28;20048;-79
2021/09/27 01:05:54;;;;;;;13.43;9.35;;;;;;;14.96;92.13;96539.97;5109395;28;20050;-78
2021/09/27 01:08:34;;;;;;;14.75;9.13;;;;;;;14.98;92.76;96534.91;5109565;28;20287;-79
2021/09/27 01:11:15;;;;;;;14.85;9.20;;;;;;;14.98;92.81;96532.19;5109684;28;20498;-77
2021/09/27 01:14:01;;;;;;;15.57;9.65;;;;;;;14.99;93.23;96533.81;5109344;28;20063;-80
2021/09/27 01:16:36;;;;;;;14.38;9.45;;;;;;;14.94;92.82;96532.09;5109990;28;20048;-80
2021/09/27 01:19:29;;;;;;;18.40;10.00;;;;;;;14.95;93.31;96539.16;5108538;28;20047;-79
2021/09/27 01:22:02;;;;;;;13.60;9.20;;;;;;;14.95;93.47;96535.63;5109902;28;20063;-78
2021/09/27 01:25:35;;;;;;;17.42;10.27;;;;;;;14.99;93.95;96537.34;5109083;28;20039;-79
2021/09/27 01:28:37;;;;;;;14.43;9.80;;;;;;;14.97;93.55;96541.56;5005506;28;20054;-76
2021/09/27 01:31:53;;;;;;;25.35;10.75;;;;;;;14.96;94.29;96539.97;5001206;28;20550;-79
2021/09/27 01:34:30;;;;;;;15.38;10.00;;;;;;;14.96;94.40;96539.97;5060549;28;20056;-78
2021/09/27 01:37:05;;;;;;;17.83;10.43;;;;;;;14.99;94.60;96539.28;5108623;28;20050;-78
2021/09/27 01:39:40;;;;;;;16.77;10.18;;;;;;;15.01;94.63;96537.00;5109346;28;20040;-80
2021/09/27 01:42:13;;;;;;;16.02;9.88;;;;;;;15.06;94.89;96534.81;5108415;28;20059;-78
2021/09/27 01:44:45;;;;;;;17.92;11.02;;;;;;;15.10;94.81;96532.19;5109216;28;20403;-78
2021/09/27 01:47:18;;;;;;;17.30;9.93;;;;;;;15.16;94.97;96525.34;5109049;28;20044;-78
2021/09/27 01:49:59;;;;;;;21.30;12.40;;;;;;;15.23;94.86;96527.50;5108270;28;20058;-78
2021/09/27 01:52:32;;;;;;;20.88;11.13;;;;;;;15.26;95.07;96533.13;5106619;28;20043;-78
2021/09/27 01:55:06;;;;;;;19.35;12.07;;;;;;;15.31;94.15;96524.66;5108163;28;20047;-78
2021/09/27 01:57:39;;;;;;;22.67;12.50;;;;;;;15.35;93.56;96522.03;5109028;28;20059;-78
2021/09/27 02:00:12;;;;;;;18.90;11.90;;;;;;;15.36;93.21;96520.88;5108194;28;20040;-79
2021/09/27 02:02:48;;;;;;;20.97;12.07;;;;;;;15.35;93.09;96522.81;5107872;28;20051;-78
2021/09/27 02:05:24;;;;;;;20.23;12.70;;;;;;;15.33;93.34;96522.34;5108848;28;20343;-78
2021/09/27 02:07:56;;;;;;;21.98;12.90;;;;;;;15.38;93.56;96524.06;5108058;28;20486;-77
2021/09/27 02:10:26;;;;;;;27.17;14.50;;;;;;;15.38;93.78;96519.38;5108278;28;20414;-77
2021/09/27 02:13:01;;;;;;;24.52;13.75;;;;;;;15.45;94.10;96512.50;5108059;28;20055;-78
2021/09/27 02:15:36;;;;;;;25.05;14.77;;;;;;;15.42;93.94;96530.47;5108137;28;20047;-78
2021/09/27 02:18:06;;;;;;;24.80;13.80;;;;;;;15.45;94.12;96512.50;5107921;28;20524;-77
2021/09/27 02:20:38;;;;;;;23.42;12.82;;;;;;;15.53;94.19;96519.81;5107734;28;20051;-77
2021/09/27 02:23:11;;;;;;;24.80;13.38;;;;;;;15.62;94.10;96517.75;5107983;28;20047;-79
2021/09/27 02:25:40;;;;;;;29.10;14.68;;;;;;;15.66;94.10;96518.69;5107924;28;20050;-78
2021/09/27 02:28:11;;;;;;;22.65;11.85;;;;;;;15.73;93.90;96523.59;5108513;28;20047;-77
2021/09/27 02:30:44;;;;;;;25.40;14.20;;;;;;;15.76;93.91;96523.69;5107655;28;20048;-80
2021/09/27 02:33:15;;;;;;;;;;;;;;;15.74;93.49;96519.69;5090309;28;20434;-77
2021/09/27 02:35:50;;;;;;;32.65;14.30;;;;;;;15.70;93.56;96514.09;5088135;28;20559;-78
2021/09/27 02:38:25;;;;;;;29.00;13.65;;;;;;;15.74;93.74;96519.69;5086975;28;20813;-78
2021/09/27 02:40:56;;;;;;;25.08;13.35;;;;;;;15.78;93.82;96521.41;5088454;28;20063;-78
2021/09/27 02:43:24;;;;;;;25.65;13.52;;;;;;;15.78;93.38;96518.66;5086671;28;20044;-79
2021/09/27 02:45:52;;;;;;;33.88;14.10;;;;;;;15.79;93.44;96520.25;5088358;28;20048;-77
2021/09/27 02:48:29;;;;;;;29.65;15.27;;;;;;;15.80;93.69;96516.34;5086550;28;20546;-77
2021/09/27 02:50:57;;;;;;;26.25;13.88;;;;;;;15.84;93.74;96513.72;5094461;28;20052;-78
2021/09/27 02:53:23;;;;;;;27.00;14.32;;;;;;;15.89;93.27;96513.47;5106569;28;20058;-78
2021/09/27 02:56:05;;;;;;;27.30;13.75;;;;;;;15.90;93.21;96521.34;5107776;28;20082;-77
2021/09/27 02:58:39;;;;;;;37.72;15.65;;;;;;;15.93;93.37;96516.34;5107711;28;20043;-78
2021/09/27 03:01:12;;;;;;;42.60;16.85;;;;;;;15.94;93.42;96518.72;5106078;28;20050;-77
2021/09/27 03:03:51;;;;;;;34.67;16.77;;;;;;;15.94;93.68;96513.22;5108066;28;20047;-79
2021/09/27 03:06:33;;;;;;;31.88;15.77;;;;;;;15.92;93.75;96518.25;5107011;28;20050;-77
2021/09/27 03:09:05;;;;;;;27.70;14.85;;;;;;;15.89;93.81;96511.53;5107748;28;20047;-77
2021/09/27 03:11:50;;;;;;;30.90;15.95;;;;;;;15.85;93.89;96507.06;5107434;28;20035;-78
2021/09/27 03:14:30;;;;;;;41.53;17.90;;;;;;;15.84;94.13;96508.22;5106515;28;20130;-78
2021/09/27 03:17:03;;;;;;;34.00;15.80;;;;;;;15.88;94.13;96506.38;5107744;28;20062;-77
2021/09/27 03:20:04;;;;;;;36.95;17.35;;;;;;;15.92;94.23;96504.53;5106379;28;20051;-78
2021/09/27 03:22:45;;;;;;;38.13;16.95;;;;;;;15.95;94.15;96503.03;5106469;28;20521;-77
2021/09/27 03:25:25;;;;;;;36.95;16.88;;;;;;;15.93;94.01;96506.16;5107081;28;20043;-76
2021/09/27 03:28:03;;;;;;;36.08;16.25;;;;;;;15.89;93.95;96495.03;5106763;28;20047;-77
2021/09/27 03:30:36;;;;;;;37.55;18.10;;;;;;;15.89;94.36;96500.53;5107709;28;20035;-76
2021/09/27 03:33:09;;;;;;;54.00;19.27;;;;;;;15.94;94.17;96495.94;5106314;28;20047;-77
2021/09/27 03:35:50;;;;;;;37.35;18.13;;;;;;;15.93;93.92;96505.34;5107523;28;20052;-77
2021/09/27 03:38:24;;;;;;;50.03;18.52;;;;;;;15.93;94.08;96510.84;5106952;28;20048;-78
2021/09/27 03:41:07;;;;;;;46.78;17.80;;;;;;;15.97;94.24;96506.22;5106946;28;20109;-76
2021/09/27 03:43:42;;;;;;;36.55;17.80;;;;;;;15.97;93.96;96506.22;5107652;28;20097;-77
2021/09/27 03:46:17;;;;;;;42.63;18.15;;;;;;;15.99;94.05;96503.94;5106144;28;20756;-76
2021/09/27 03:48:50;;;;;;;36.85;17.40;;;;;;;16.04;93.69;96510.00;5107206;28;20398;-78
2021/09/27 03:51:20;;;;;;;43.35;17.90;;;;;;;16.08;93.14;96519.13;5106247;28;20047;-76
2021/09/27 03:53:52;;;;;;;40.10;17.33;;;;;;;16.07;93.32;96512.00;5106763;28;20058;-78
2021/09/27 03:56:23;;;;;;;45.83;18.65;;;;;;;16.11;93.40;96506.63;5106816;28;20050;-76
2021/09/27 03:58:57;;;;;;;61.03;20.58;;;;;;;16.12;93.43;96503.53;5106302;28;20036;-77
2021/09/27 04:01:32;;;;;;;39.17;17.95;;;;;;;16.15;93.46;96513.03;5106898;28;20074;-79
2021/09/27 04:04:14;;;;;;;42.95;18.25;;;;;;;16.20;93.35;96510.03;5106529;28;20785;-76
2021/09/27 04:06:54;;;;;;;42.70;17.75;;;;;;;16.26;93.13;96503.13;5109142;28;20078;-77
2021/09/27 04:09:32;;;;;;;39.00;17.35;;;;;;;16.28;93.01;96511.00;5110314;28;20422;-77
2021/09/27 04:12:17;;;;;;;39.42;18.75;;;;;;;16.28;92.83;96511.00;5110536;28;20498;-77
2021/09/27 04:14:52;;;;;;;38.38;17.73;;;;;;;16.26;92.64;96507.84;5111292;28;20504;-78
2021/09/27 04:17:32;;;;;;;39.50;19.15;;;;;;;16.28;92.59;96506.31;5109337;28;20043;-76
2021/09/27 04:20:06;;;;;;;42.63;18.20;;;;;;;16.33;92.24;96508.00;5110904;28;20048;-77
2021/09/27 04:22:36;;;;;;;35.97;17.38;;;;;;;16.36;91.22;96508.13;5109879;28;20055;-78
2021/09/27 04:25:12;;;;;;;38.63;19.35;;;;;;;16.38;91.20;96505.81;5109935;28;20048;-79
2021/09/27 04:27:54;;;;;;;41.50;17.85;;;;;;;16.39;91.54;96510.19;5111273;28;20064;-78
2021/09/27 04:30:33;;;;;;;37.47;17.42;;;;;;;16.39;91.54;96504.69;5109699;28;20051;-79
2021/09/27 04:33:29;;;;;;;33.13;17.20;;;;;;;16.46;91.31;96511.50;5110544;28;20506;-76
2021/09/27 04:36:07;;;;;;;40.47;17.27;;;;;;;16.46;91.41;96511.50;5110447;28;20039;-76
2021/09/27 04:38:36;;;;;;;37.63;17.77;;;;;;;16.48;91.35;96514.69;5110012;28;20047;-77
2021/09/27 04:41:22;;;;;;;34.28;17.10;;;;;;;16.50;91.41;96515.97;5110310;28;20051;-78
2021/09/27 04:44:01;;;;;;;31.63;16.85;;;;;;;16.52;91.38;96510.09;5109928;28;20066;-77
2021/09/27 04:46:36;;;;;;;34.20;16.42;;;;;;;16.51;91.37;96503.81;5110178;28;20118;-77
2021/09/27 04:49:14;;;;;;;36.80;16.42;;;;;;;16.53;91.47;96506.19;5109416;28;20054;-77
2021/09/27 04:52:04;;;;;;;37.25;20.48;;;;;;;16.53;91.36;96503.44;5107345;28;20385;-77
2021/09/27 04:54:44;;;;;;;44.65;19.35;;;;;;;16.55;91.44;96503.88;5089939;28;20052;-77
2021/09/27 04:57:24;;;;;;;30.85;16.95;;;;;;;16.55;91.29;96493.72;5088640;28;20077;-76
2021/09/27 05:00:02;;;;;;;28.75;15.15;;;;;;;16.56;91.21;96500.00;5089735;28;20418;-76
2021/09/27 05:02:46;;;;;;;30.27;16.45;;;;;;;16.55;91.07;96503.88;5089508;28;20044;-76
2021/09/27 05:05:23;;;;;;;32.25;16.15;;;;;;;16.52;90.51;96507.34;5088745;28;20047;-76
2021/09/27 05:08:04;;;;;;;44.22;16.10;;;;;;;16.54;90.68;96507.78;5090026;28;20565;-77
2021/09/27 05:11:17;;;;;;;28.77;14.77;;;;;;;16.58;90.26;96503.19;5088533;28;20039;-75
2021/09/27 05:14:10;;;;;;;28.77;15.85;;;;;;;16.54;89.83;96505.03;5005823;28;20061;-74
2021/09/27 05:16:48;;;;;;;32.67;16.50;;;;;;;16.47;89.99;96507.59;5083517;28;20040;-74
2021/09/27 05:19:33;;;;;;;30.38;15.50;;;;;;;16.43;90.01;96508.31;5088190;28;20052;-76
2021/09/27 05:22:17;;;;;;;27.13;15.07;;;;;;;16.44;90.13;96503.59;5104252;28;20056;-74
2021/09/27 05:24:54;;;;;;;;;;;;;;;16.44;90.20;96506.34;5110013;28;20047;-75
2021/09/27 05:27:52;;;;;;;23.73;14.32;;;;;;;16.41;89.55;96502.38;5109401;28;19927;-75
2021/09/27 05:30:35;;;;;;;23.38;12.90;;;;;;;16.40;89.77;96503.53;5109153;28;20048;-74
2021/09/27 05:33:08;;;;;;;23.00;13.77;;;;;;;16.36;89.59;96502.63;5108669;28;20047;-74
2021/09/27 05:35:55;;;;;;;23.27;14.55;;;;;;;16.32;89.80;96501.72;5109586;28;20051;-76
2021/09/27 05:38:30;;;;;;;23.90;13.98;;;;;;;16.29;90.06;96501.66;5108737;28;20059;-76
2021/09/27 05:41:07;;;;;;;27.17;14.90;;;;;;;16.26;90.25;96503.13;5108463;28;20047;-75
2021/09/27 05:43:45;;;;;;;32.65;15.82;;;;;;;16.24;90.37;96505.44;5109528;28;20454;-76
2021/09/27 05:46:33;;;;;;;26.05;14.90;;;;;;;16.26;90.37;96505.09;5107900;28;20047;-77
2021/09/27 05:49:03;;;;;;;26.55;14.73;;;;;;;16.23;90.33;96505.78;5109356;28;20043;-76
2021/09/27 05:51:36;;;;;;;24.48;14.25;;;;;;;16.18;90.33;96504.06;5108294;28;20055;-76
2021/09/27 05:54:11;;;;;;;27.25;14.57;;;;;;;16.13;89.89;96510.66;5108191;28;20051;-75
2021/09/27 05:56:47;;;;;;;22.23;13.02;;;;;;;16.10;89.83;96505.03;5109476;28;20044;-75
2021/09/27 05:59:20;;;;;;;25.80;13.18;;;;;;;16.12;89.78;96505.47;5108164;28;20048;-76
2021/09/27 06:01:58;;;;;;;24.63;13.38;;;;;;;16.08;89.54;96507.34;5109203;28;20051;-76
2021/09/27 06:04:27;;;;;;;23.85;12.68;;;;;;;16.07;89.83;96511.22;5108101;28;20050;-75
2021/09/27 06:07:02;;;;;;;25.30;13.40;;;;;;;16.06;89.84;96502.19;5108871;28;20391;-75
2021/09/27 06:09:39;;;;;;;21.98;12.98;;;;;;;16.05;90.01;96510.78;5108558;28;20044;-75
2021/09/27 06:12:19;;;;;;;20.77;12.98;;;;;;;16.04;88.76;96510.00;5107624;28;20410;-77
2021/09/27 06:14:47;;;;;;;22.95;12.77;;;;;;;16.03;88.77;96515.84;5109434;28;20051;-74
2021/09/27 06:17:26;;;;;;;19.55;12.90;;;;;;;16.04;88.74;96517.44;5107598;28;20048;-75
2021/09/27 06:19:58;;;;;;;18.52;12.27;;;;;;;16.03;88.81;96522.13;5108931;28;20055;-74
2021/09/27 06:22:46;;;;;;;17.58;11.45;;;;;;;16.05;88.66;96521.78;5107181;28;20391;-75
2021/09/27 06:25:20;;;;;;;19.52;12.57;;;;;;;16.03;89.08;96524.06;5107531;28;20604;-75
2021/09/27 06:27:59;;;;;;;23.23;13.07;;;;;;;16.06;89.50;96526.13;5108528;28;20043;-75
2021/09/27 06:30:31;;;;;;;21.00;12.98;;;;;;;16.07;89.33;96528.50;5106974;28;20051;-75
2021/09/27 06:33:09;;;;;;;24.05;13.85;;;;;;;16.10;88.76;96529.75;5108463;28;20043;-75
2021/09/27 06:35:38;;;;;;;21.25;13.15;;;;;;;16.14;89.30;96528.72;5108064;28;20490;-75
2021/09/27 06:38:08;;;;;;;21.05;12.50;;;;;;;16.21;89.59;96528.13;5107652;28;20418;-74
2021/09/27 06:40:39;;;;;;;18.05;11.95;;;;;;;16.26;89.79;96530.59;5108209;28;20418;-75
2021/09/27 06:43:09;;;;;;;20.25;11.02;;;;;;;16.27;87.87;96526.72;5107045;28;20048;-75
2021/09/27 06:45:36;;;;;;;14.40;9.73;;;;;;;16.27;87.10;96525.91;5108515;28;20059;-74
2021/09/27 06:48:04;;;;;;;15.20;10.48;;;;;;;16.29;87.24;96529.91;5107267;28;20043;-74
2021/09/27 06:50:31;;;;;;;15.38;10.15;;;;;;;16.33;87.60;96524.50;5108031;28;20055;-75
2021/09/27 06:52:57;;;;;;;13.55;10.02;;;;;;;16.40;87.67;96527.47;5107610;28;20048;-76
2021/09/27 06:55:24;;;;;;;17.98;9.70;;;;;;;16.73;86.39;96526.38;5107684;28;20047;-75
2021/09/27 06:57:50;;;;;;;14.30;9.35;;;;;;;17.43;84.58;96527.31;5107607;28;20047;-75
2021/09/27 07:00:17;;;;;;;16.23;9.63;;;;;;;17.90;81.96;96515.41;5107640;28;20055;-77
2021/09/27 07:02:44;;;;;;;10.60;8.13;;;;;;;18.23;79.68;96522.38;5107742;28;20059;-74
2021/09/27 07:05:13;;;;;;;12.07;8.43;;;;;;;18.23;79.66;96525.16;5106880;28;20055;-75
2021/09/27 07:07:40;;;;;;;12.30;7.90;;;;;;;18.10;80.43;96520.94;5107940;28;20048;-74
2021/09/27 07:10:10;;;;;;;10.68;7.97;;;;;;;17.88;79.46;96506.72;5106935;28;20082;-75
2021/09/27 07:12:37;;;;;;;10.88;7.57;;;;;;;17.79;79.51;96511.63;5107978;28;20047;-75
2021/09/27 07:15:04;;;;;;;14.70;9.30;;;;;;;17.87;80.06;96507.88;5106529;28;20051;-74
2021/09/27 07:17:31;;;;;;;12.77;8.85;;;;;;;18.16;80.71;96511.19;5107716;28;20461;-75
2021/09/27 07:19:57;;;;;;;12.48;8.48;;;;;;;18.77;78.41;96504.91;5107344;28;20616;-74
2021/09/27 07:22:25;;;;;;;13.68;8.68;;;;;;;19.33;75.61;96503.47;5106585;28;20612;-74
2021/09/27 07:24:52;;;;;;;14.35;8.07;;;;;;;19.85;71.45;96501.88;5107591;28;20052;-75
2021/09/27 07:27:19;;;;;;;11.75;7.65;;;;;;;19.64;70.42;96499.63;5106915;28;20066;-74
2021/09/27 07:29:45;;;;;;;9.70;6.95;;;;;;;20.10;70.65;96502.16;5107822;28;20498;-74
2021/09/27 07:32:12;;;;;;;11.32;8.02;;;;;;;20.02;69.54;96495.78;5106465;28;20050;-74
2021/09/27 07:34:38;;;;;;;10.45;7.43;;;;;;;20.18;70.63;96503.84;5108084;28;20044;-74
2021/09/27 07:37:05;;;;;;;8.48;6.88;;;;;;;20.25;70.53;96509.47;5106410;28;20051;-74
2021/09/27 07:39:34;;;;;;;9.10;6.75;;;;;;;20.26;67.73;96511.06;5108361;28;20346;-74
2021/09/27 07:42:01;;;;;;;11.00;6.90;;;;;;;20.56;66.84;96509.06;5111224;28;20047;-74
2021/09/27 07:44:28;;;;;;;9.25;6.97;;;;;;;21.01;68.14;96518.19;5111817;28;20044;-74
2021/09/27 07:46:54;;;;;;;8.68;6.38;;;;;;;20.88;67.47;96514.13;5110776;28;20051;-74
2021/09/27 07:49:21;;;;;;;13.32;7.70;;;;;;;20.89;67.35;96510.19;5111801;28;20051;-74
2021/09/27 07:51:47;;;;;;;10.77;7.43;;;;;;;20.63;66.86;96515.88;5111596;28;20058;-74
2021/09/27 07:54:14;;;;;;;11.07;7.47;;;;;;;20.39;68.93;96514.38;5110623;28;20078;-73
2021/09/27 07:56:42;;;;;;;10.90;7.63;;;;;;;20.31;68.53;96513.50;5111796;28;20055;-74
2021/09/27 07:59:08;;;;;;;15.10;8.00;;;;;;;20.10;70.09;96524.28;5110417;28;20051;-74
2021/09/27 08:01:35;;;;;;;9.43;7.05;;;;;;;19.72;68.85;96515.91;5111688;28;20052;-74
2021/09/27 08:04:02;;;;;;;10.55;7.53;;;;;;;19.38;70.60;96509.47;5110624;28;20043;-73
2021/09/27 08:06:28;;;;;;;12.23;8.55;;;;;;;19.12;72.72;96503.94;5111320;28;20070;-73
2021/09/27 08:08:55;;;;;;;14.43;8.38;;;;;;;19.01;74.54;96509.28;5111087;28;20470;-73
2021/09/27 08:11:22;;;;;;;22.63;9.60;;;;;;;18.94;76.12;96509.94;5110841;28;20052;-73
2021/09/27 08:13:50;;;;;;;14.35;8.70;;;;;;;19.03;76.46;96510.47;5110945;28;20140;-73
2021/09/27 08:16:16;;;;;;;14.60;8.60;;;;;;;19.17;77.01;96507.16;5110379;28;20127;-74
2021/09/27 08:18:42;;;;;;;12.55;8.75;;;;;;;19.21;74.73;96501.69;5111469;28;20502;-75
2021/09/27 08:21:11;;;;;;;16.67;9.10;;;;;;;19.23;72.51;96500.16;5109282;28;20047;-72
2021/09/27 08:23:38;;;;;;;12.23;8.80;;;;;;;19.24;72.58;96500.94;5111244;28;20053;-73
2021/09/27 08:26:06;;;;;;;14.02;9.05;;;;;;;19.19;73.20;96501.28;5109820;28;20054;-74
2021/09/27 08:28:36;;;;;;;15.95;9.32;;;;;;;19.16;74.10;96496.47;5111435;28;20047;-73
2021/09/27 08:31:06;;;;;;;13.90;9.70;;;;;;;19.20;74.09;96489.06;5109942;28;20077;-72
2021/09/27 08:33:33;;;;;;;13.32;8.73;;;;;;;19.27;72.37;96483.66;5110913;28;20074;-74
2021/09/27 08:36:03;;;;;;;16.15;10.35;;;;;;;19.45;74.61;96479.19;5110701;28;20054;-73
2021/09/27 08:38:36;;;;;;;15.00;9.68;;;;;;;19.88;70.40;96481.75;5110171;28;20630;-73
2021/09/27 08:41:07;;;;;;;13.27;9.50;;;;;;;20.13;68.55;96479.31;5110519;28;20563;-73
2021/09/27 08:43:46;;;;;;;15.35;9.18;;;;;;;20.26;69.02;96488.97;5110039;28;20054;-73
2021/09/27 08:46:20;;;;;;;13.57;9.98;;;;;;;20.41;68.83;96487.13;5110992;28;20043;-73
2021/09/27 08:48:52;;;;;;;14.48;9.82;;;;;;;21.14;68.82;96492.97;5110111;28;20410;-74
2021/09/27 08:51:19;;;;;;;14.50;9.98;;;;;;;21.48;65.93;96496.44;5108906;28;20048;-73
2021/09/27 08:53:51;;;;;;;13.68;9.43;;;;;;;21.31;64.72;96500.69;5110391;28;20498;-73
2021/09/27 08:56:25;;;;;;;14.15;9.93;;;;;;;21.18;65.35;96505.69;5109653;28;20054;-75
2021/09/27 08:58:59;;;;;;;13.23;9.50;;;;;;;21.03;65.61;96496.44;5110241;28;20050;-74
2021/09/27 09:01:34;;;;;;;16.73;9.52;;;;;;;20.92;65.87;96498.34;5108889;28;20745;-74
2021/09/27 09:04:07;;;;;;;16.20;10.20;;;;;;;20.82;66.71;96499.81;5110599;28;20073;-75
2021/09/27 09:06:38;;;;;;;18.00;10.93;;;;;;;20.70;68.80;96491.81;5109377;28;20494;-76
2021/09/27 09:09:10;;;;;;;15.85;10.05;;;;;;;20.73;70.84;96495.81;5109808;28;20058;-74
2021/09/27 09:11:41;;;;;;;13.80;9.03;;;;;;;20.57;67.92;96496.03;5110090;28;20039;-75
2021/09/27 09:14:16;;;;;;;15.63;11.45;;;;;;;20.37;67.45;96495.41;5109441;28;20133;-74
2021/09/27 09:16:46;;;;;;;15.63;10.13;;;;;;;20.19;67.97;96499.91;5110499;28;20044;-74
2021/09/27 09:19:16;;;;;;;16.73;10.82;;;;;;;20.18;69.13;96490.81;5108649;28;20066;-74
2021/09/27 09:21:48;;;;;;;15.20;9.98;;;;;;;20.31;70.12;96489.41;5109894;28;20055;-74
2021/09/27 09:24:18;;;;;;;16.70;10.95;;;;;;;20.44;71.56;96487.16;5108716;28;20624;-74
2021/09/27 09:26:48;;;;;;;15.10;10.52;;;;;;;20.43;69.64;96485.59;5109816;28;20047;-74
2021/09/27 09:29:19;;;;;;;18.88;10.38;;;;;;;20.54;67.76;96478.22;5109032;28;20048;-74
2021/09/27 09:31:51;;;;;;;14.85;9.65;;;;;;;20.46;69.48;96484.84;5109265;28;20048;-74
2021/09/27 09:34:28;;;;;;;14.40;10.23;;;;;;;20.24;68.81;96486.56;5109285;28;20422;-74
2021/09/27 09:37:00;;;;;;;14.60;10.30;;;;;;;20.18;69.01;96488.06;5108943;28;20104;-74
2021/09/27 09:39:29;;;;;;;19.92;11.55;;;;;;;20.40;71.50;96489.09;5109729;28;20049;-71
2021/09/27 09:41:58;;;;;;;16.60;11.18;;;;;;;20.46;71.83;96486.78;5109022;28;20055;-74
2021/09/27 09:44:27;;;;;;;15.45;10.82;;;;;;;20.46;72.21;96484.84;5109414;28;20514;-74
2021/09/27 09:47:03;;;;;;;15.85;10.35;;;;;;;20.43;72.04;96488.34;5109214;28;20048;-74
2021/09/27 09:49:31;;;;;;;16.33;10.63;;;;;;;20.34;70.58;96490.63;5109205;28;20043;-74
2021/09/27 09:52:01;;;;;;;14.35;10.20;;;;;;;20.25;71.16;96485.38;5107763;28;20051;-74
2021/09/27 09:54:30;;;;;;;15.57;10.02;;;;;;;20.12;71.33;96477.72;5108361;28;20047;-74
2021/09/27 09:57:05;;;;;;;18.23;11.40;;;;;;;20.11;71.91;96479.69;5109572;28;20048;-74
2021/09/27 09:59:35;;;;;;;21.15;11.30;;;;;;;20.06;71.58;96480.81;5108228;28;20044;-74
2021/09/27 10:02:08;;;;;;;17.60;9.20;;;;;;;20.29;70.85;96488.19;5115338;27;20051;-74
2021/09/27 10:04:39;;;;;;;13.25;9.43;;;;;;;20.37;66.18;96476.03;5107118;28;20055;-74
2021/09/27 10:07:12;;;;;;;13.13;9.15;;;;;;;20.41;66.61;96479.66;5108310;28;20039;-72
2021/09/27 10:09:46;;;;;;;13.75;9.48;;;;;;;20.54;67.43;96478.22;5108825;28;20052;-72
2021/09/27 10:12:15;;;;;;;11.48;8.02;;;;;;;20.63;65.07;96471.59;5107831;28;20059;-72
2021/09/27 10:14:45;;;;;;;11.80;8.13;;;;;;;20.67;64.97;96475.16;5109108;28;20058;-71
2021/09/27 10:17:27;;;;;;;10.45;7.95;;;;;;;20.79;65.33;96472.13;5107657;28;20073;-72
2021/09/27 10:19:58;;;;;;;11.57;8.38;;;;;;;20.75;65.05;96474.06;5108856;28;20051;-72
2021/09/27 10:22:29;;;;;;;16.00;9.35;;;;;;;20.62;65.58;96467.22;5107012;28;20046;-74
2021/09/27 10:24:58;;;;;;;11.70;8.38;;;;;;;20.66;66.83;96462.50;5108632;28;20623;-72
2021/09/27 10:27:30;;;;;;;10.80;8.45;;;;;;;20.65;69.00;96464.50;5107876;28;20410;-73
2021/09/27 10:29:59;;;;;;;12.90;8.90;;;;;;;20.62;69.37;96461.69;5108985;28;20051;-75
2021/09/27 10:32:37;;;;;;;13.90;8.57;;;;;;;20.57;68.59;96460.09;5108166;28;20125;-71
2021/09/27 10:35:28;;;;;;;12.40;9.43;;;;;;;20.43;68.49;96463.47;5107362;28;20585;-71
2021/09/27 10:38:01;;;;;;;14.68;9.77;;;;;;;20.41;68.31;96460.28;5108414;28;20125;-74
2021/09/27 10:40:28;;;;;;;10.45;8.70;;;;;;;20.36;67.77;96460.63;5107866;28;20055;-73
2021/09/27 10:42:55;;;;;;;13.13;9.60;;;;;;;20.30;68.09;96457.38;5107990;28;20048;-73
2021/09/27 10:45:25;;;;;;;12.77;9.02;;;;;;;20.22;68.88;96460.47;5107470;28;20052;-73
2021/09/27 10:47:56;;;;;;;11.40;9.45;;;;;;;20.25;69.23;96462.47;5107798;28;20502;-73
2021/09/27 10:50:26;;;;;;;10.75;8.48;;;;;;;20.19;66.96;96458.44;5107506;28;20047;-73
2021/09/27 10:53:03;;;;;;;14.95;8.60;;;;;;;20.23;66.77;96456.53;5106987;28;20043;-73
2021/09/27 10:55:46;;;;;;;9.43;7.78;;;;;;;20.14;65.99;96459.56;5108077;28;20032;-73
2021/09/27 10:58:28;;;;;;;10.88;7.68;;;;;;;20.07;66.24;96465.81;5115536;27;20050;-73
2021/09/27 11:00:56;;;;;;;11.85;8.43;;;;;;;20.08;67.30;96450.81;5128212;27;20058;-73
2021/09/27 11:03:29;;;;;;;10.80;7.80;;;;;;;20.17;70.87;96461.59;5107730;28;20047;-73
2021/09/27 11:06:01;;;;;;;11.60;7.90;;;;;;;20.28;67.40;96461.72;5107148;28;20564;-73
2021/09/27 11:08:39;;;;;;;11.73;8.07;;;;;;;20.37;68.11;96456.69;5108046;28;20596;-74
2021/09/27 11:11:18;;;;;;;9.13;7.22;;;;;;;20.47;64.64;96458.78;5106745;28;20050;-73
2021/09/27 11:13:47;;;;;;;13.48;7.90;;;;;;;20.56;66.32;96462.03;5107799;28;20051;-73
2021/09/27 11:16:18;;;;;;;12.38;8.00;;;;;;;20.72;64.69;96455.44;5106557;28;20494;-73
2021/09/27 11:18:59;;;;;;;8.00;6.65;;;;;;;20.82;62.32;96457.53;5107478;28;20059;-73
2021/09/27 11:21:44;;;;;;;10.93;7.38;;;;;;;21.00;63.28;96460.47;5107054;28;20066;-73
2021/09/27 11:24:50;;;;;;;10.02;6.85;;;;;;;21.23;63.26;96460.22;5106763;28;20525;-73
2021/09/27 11:27:32;;;;;;;10.52;8.05;;;;;;;21.33;63.84;96459.53;5107042;28;20051;-73
2021/09/27 11:30:39;;;;;;;10.23;7.40;;;;;;;21.21;62.77;96455.06;5107667;28;20062;-73
2021/09/27 11:33:16;;;;;;;10.20;6.22;;;;;;;21.05;60.21;96457.34;5088529;28;20047;-73
2021/09/27 11:35:46;;;;;;;8.88;7.05;;;;;;;20.90;61.46;96461.94;5087572;28;20056;-72
2021/09/27 11:38:30;;;;;;;10.73;7.35;;;;;;;20.86;63.56;96461.13;5085912;28;20055;-72
2021/09/27 11:41:04;;;;;;;8.60;7.28;;;;;;;20.86;61.78;96463.88;5086294;28;20079;-73
2021/09/27 11:43:37;;;;;;;8.98;7.20;;;;;;;20.74;62.13;96464.19;5086826;28;20402;-73
2021/09/27 11:46:22;;;;;;;11.63;7.43;;;;;;;20.74;63.52;96458.66;5086386;28;20048;-73
2021/09/27 11:48:56;;;;;;;11.02;7.70;;;;;;;20.63;62.57;96458.56;5087354;28;20044;-73
2021/09/27 11:51:40;;;;;;;9.55;7.32;;;;;;;20.58;63.37;96456.94;5086336;28;20056;-73
2021/09/27 11:54:15;;;;;;;8.73;7.35;;;;;;;20.66;62.56;96454.22;5085923;28;20569;-73